Time;durP1;ratioP1;P1;durP2;ratioP2;P2;SDS_P1;SDS_P2;PMS_P1;PMS_P2;Temp;Humidity;BMP_temperature;BMP_pressure;BME280_temperature;BME280_humidity;BME280_pressure;Samples;Min_cycle;Max_cycle;Signal;HPM_P1;HPM_P2
2023/05/12 00:00:37;;;;;;;;;;;;;;;11.64;100.00;101568.69;5058301;28;1272;-73
2023/05/12 00:03:03;;;;;;;;;;;;;;;11.64;100.00;101566.97;5053543;28;1591;-73
2023/05/12 00:05:28;;;;;;;;;;;;;;;11.62;100.00;101570.59;5057728;28;1248;-71
2023/05/12 00:07:54;;;;;;;;;;;;;;;11.59;100.00;101569.06;5055199;28;1255;-71
2023/05/12 00:10:19;;;;;;;;;;;;;;;11.59;100.00;101569.06;5058952;28;1564;-70
2023/05/12 00:12:45;;;;;;;;;;;;;;;11.56;100.00;101563.25;5061978;28;1258;-72
2023/05/12 00:15:10;;;;;;;;;;;;;;;11.50;100.00;101559.34;5075206;28;1548;-71
2023/05/12 00:17:35;;;;;;;;;;;;;;;11.46;100.00;101570.88;5057219;28;1540;-70
2023/05/12 00:20:01;;;;;;;;;;;;;;;11.43;100.00;101563.34;5062245;28;1949;-71
2023/05/12 00:22:26;;;;;;;;;;;;;;;11.41;100.00;101565.19;5065423;28;1418;-72
2023/05/12 00:24:52;;;;;;;;;;;;;;;11.37;100.00;101567.22;5057479;28;1312;-71
2023/05/12 00:27:17;;;;;;;;;;;;;;;11.34;100.00;101564.81;5058446;28;1310;-71
2023/05/12 00:29:42;;;;;;;;;;;;;;;11.35;100.00;101555.25;5067220;28;1279;-71
2023/05/12 00:32:07;;;;;;;;;;;;;;;11.30;100.00;101558.22;5061535;28;1522;-70
2023/05/12 00:34:33;;;;;;;;;;;;;;;11.27;100.00;101557.59;5065668;28;1617;-70
2023/05/12 00:36:58;;;;;;;;;;;;;;;11.21;100.00;101558.06;5063857;28;1247;-72
2023/05/12 00:39:23;;;;;;;;;;;;;;;11.17;100.00;101560.84;5056277;28;1902;-71
2023/05/12 00:41:53;;;;;;;;;;;;;;;11.15;100.00;101551.53;5063346;28;1254;-72
2023/05/12 00:44:18;;;;;;;;;;;;;;;11.08;100.00;101556.34;5063160;28;1466;-71
2023/05/12 00:46:44;;;;;;;;;;;;;;;11.06;100.00;101560.78;5064561;28;1376;-73
2023/05/12 00:49:09;;;;;;;;;;;;;;;11.00;100.00;101550.84;5063149;28;1529;-72
2023/05/12 00:51:34;;;;;;;;;;;;;;;10.95;100.00;101552.94;5050431;28;1430;-70
2023/05/12 00:54:00;;;;;;;;;;;;;;;10.92;100.00;101549.75;5053009;28;1417;-71
2023/05/12 00:56:25;;;;;;;;;;;;;;;10.90;100.00;101544.69;5065494;28;1203;-71
2023/05/12 00:58:51;;;;;;;;;;;;;;;10.87;100.00;101540.53;5064542;28;1890;-71
2023/05/12 01:01:16;;;;;;;;;;;;;;;10.87;100.00;101542.31;5062576;28;1302;-74
2023/05/12 01:03:42;;;;;;;;;;;;;;;10.87;100.00;101539.69;5063824;28;1662;-71
2023/05/12 01:06:07;;;;;;;;;;;;;;;10.85;100.00;101541.59;5059062;28;1599;-71
2023/05/12 01:08:33;;;;;;;;;;;;;;;10.81;100.00;101540.16;5054381;28;1174;-70
2023/05/12 01:10:58;;;;;;;;;;;;;;;10.78;100.00;101533.41;5065870;28;1091;-71
2023/05/12 01:13:25;;;;;;;;;;;;;;;10.76;100.00;101526.66;5065289;28;1108;-72
2023/05/12 01:15:52;;;;;;;;;;;;;;;10.76;100.00;101526.66;5067068;28;1128;-70
2023/05/12 01:18:19;;;;;;;;;;;;;;;10.78;100.00;101529.97;5063705;28;1893;-70
2023/05/12 01:20:45;;;;;;;;;;;;;;;10.80;100.00;101517.72;5069099;28;1132;-71
2023/05/12 01:23:13;;;;;;;;;;;;;;;10.81;100.00;101524.56;5070002;28;1261;-71
2023/05/12 01:25:40;;;;;;;;;;;;;;;10.83;100.00;101523.50;5061861;28;1221;-71
2023/05/12 01:28:06;;;;;;;;;;;;;;;10.85;100.00;101526.03;5067186;28;1265;-71
2023/05/12 01:30:31;;;;;;;;;;;;;;;10.87;100.00;101518.94;5060283;28;1065;-71
2023/05/12 01:32:56;;;;;;;;;;;;;;;10.85;100.00;101520.84;5066136;28;1255;-72
2023/05/12 01:35:22;;;;;;;;;;;;;;;10.86;100.00;101517.28;5063748;28;1278;-71
2023/05/12 01:37:47;;;;;;;;;;;;;;;10.82;100.00;101521.03;5065611;28;1449;-71
2023/05/12 01:40:12;;;;;;;;;;;;;;;10.83;100.00;101522.69;5059701;28;1965;-70
2023/05/12 01:42:39;;;;;;;;;;;;;;;10.82;100.00;101518.44;5062819;28;1091;-73
2023/05/12 01:45:05;;;;;;;;;;;;;;;10.80;100.00;101515.13;5069063;28;1215;-70
2023/05/12 01:47:30;;;;;;;;;;;;;;;10.79;100.00;101505.69;5068192;28;1299;-71
2023/05/12 01:49:55;;;;;;;;;;;;;;;10.77;100.00;101512.75;5068950;28;1208;-72
2023/05/12 01:52:21;;;;;;;;;;;;;;;10.75;100.00;101509.44;5062913;28;1267;-71
2023/05/12 01:54:46;;;;;;;;;;;;;;;10.75;100.00;101512.88;5064214;28;1107;-72
2023/05/12 01:57:11;;;;;;;;;;;;;;;10.76;100.00;101511.09;5067309;28;1164;-71
2023/05/12 01:59:36;;;;;;;;;;;;;;;10.76;100.00;101516.28;5075782;28;1996;-72
2023/05/12 02:02:02;;;;;;;;;;;;;;;10.75;100.00;101510.28;5060187;28;1188;-71
2023/05/12 02:04:27;;;;;;;;;;;;;;;10.74;100.00;101516.41;5066436;28;1596;-71
2023/05/12 02:06:52;;;;;;;;;;;;;;;10.74;100.00;101507.78;5061793;28;1128;-73
2023/05/12 02:09:17;;;;;;;;;;;;;;;10.73;100.00;101512.16;5054871;28;1099;-71
2023/05/12 02:11:43;;;;;;;;;;;;;;;10.73;100.00;101516.53;5065023;28;1302;-72
2023/05/12 02:14:08;;;;;;;;;;;;;;;10.72;100.00;101509.66;5067472;28;1188;-72
2023/05/12 02:16:33;;;;;;;;;;;;;;;10.71;100.00;101505.41;5059526;28;1599;-72
2023/05/12 02:18:58;;;;;;;;;;;;;;;10.70;100.00;101501.16;5065236;28;1906;-71
2023/05/12 02:21:23;;;;;;;;;;;;;;;10.71;100.00;101501.03;5063883;28;1042;-71
2023/05/12 02:23:48;;;;;;;;;;;;;;;10.71;100.00;101497.63;5059649;28;1108;-72
2023/05/12 02:26:14;;;;;;;;;;;;;;;10.70;100.00;101486.41;5063379;28;1087;-71
2023/05/12 02:28:39;;;;;;;;;;;;;;;10.68;100.00;101495.25;5058167;28;1069;-71
2023/05/12 02:31:05;;;;;;;;;;;;;;;10.65;100.00;101493.69;5066527;28;1294;-71
2023/05/12 02:33:30;;;;;;;;;;;;;;;10.63;100.00;101493.81;5066393;28;1180;-71
2023/05/12 02:35:55;;;;;;;;;;;;;;;10.64;100.00;101492.03;5062592;28;1239;-70
2023/05/12 02:38:20;;;;;;;;;;;;;;;10.63;100.00;101491.22;5068784;28;1911;-74
2023/05/12 02:40:46;;;;;;;;;;;;;;;10.62;100.00;101483.56;5058991;28;1340;-71
2023/05/12 02:43:11;;;;;;;;;;;;;;;10.61;100.00;101477.53;5066832;28;1354;-71
2023/05/12 02:45:37;;;;;;;;;;;;;;;10.61;100.00;101477.53;5066150;28;1216;-71
2023/05/12 02:48:02;;;;;;;;;;;;;;;10.63;100.00;101469.63;5065203;28;1242;-72
2023/05/12 02:50:28;;;;;;;;;;;;;;;10.62;100.00;101479.19;5060382;28;1314;-72
2023/05/12 02:52:53;;;;;;;;;;;;;;;10.62;100.00;101478.38;5060393;28;1199;-74
2023/05/12 02:55:18;;;;;;;;;;;;;;;10.61;100.00;101472.34;5063914;28;1493;-72
2023/05/12 02:57:43;;;;;;;;;;;;;;;10.60;100.00;101475.03;5061614;28;1203;-71
2023/05/12 03:00:09;;;;;;;;;;;;;;;10.60;100.00;101475.84;5058780;28;1890;-71
2023/05/12 03:02:35;;;;;;;;;;;;;;;10.62;100.00;101468.00;5064514;28;1560;-72
2023/05/12 03:05:01;;;;;;;;;;;;;;;10.60;100.00;101462.88;5059140;28;1263;-72
2023/05/12 03:07:26;;;;;;;;;;;;;;;10.60;100.00;101475.84;5053782;28;1564;-73
2023/05/12 03:09:51;;;;;;;;;;;;;;;10.58;100.00;101466.53;5068165;28;1091;-72
2023/05/12 03:12:16;;;;;;;;;;;;;;;10.60;100.00;101470.66;5061540;28;1234;-71
2023/05/12 03:14:42;;;;;;;;;;;;;;;10.61;100.00;101467.16;5063384;28;1266;-71
2023/05/12 03:17:07;;;;;;;;;;;;;;;10.61;100.00;101472.34;5064828;28;1289;-71
2023/05/12 03:19:33;;;;;;;;;;;;;;;10.55;100.00;101467.59;5053919;28;1890;-72
2023/05/12 03:21:58;;;;;;;;;;;;;;;10.54;100.00;101465.91;5056525;28;1171;-73
2023/05/12 03:24:24;;;;;;;;;;;;;;;10.52;100.00;101462.63;5062257;28;1016;-72
2023/05/12 03:26:49;;;;;;;;;;;;;;;10.53;100.00;101459.09;5058988;28;1020;-72
2023/05/12 03:29:14;;;;;;;;;;;;;;;10.53;100.00;101459.09;5052938;28;1032;-72
2023/05/12 03:31:39;;;;;;;;;;;;;;;10.53;100.00;101464.28;5064097;28;1329;-71
2023/05/12 03:34:05;;;;;;;;;;;;;;;10.52;100.00;101457.44;5058311;28;1239;-71
2023/05/12 03:36:30;;;;;;;;;;;;;;;10.51;100.00;101460.97;5061770;28;1379;-71
2023/05/12 03:38:55;;;;;;;;;;;;;;;10.50;100.00;101453.31;5064618;28;1958;-71
2023/05/12 03:41:20;;;;;;;;;;;;;;;10.48;100.00;101465.53;5081841;28;1167;-73
2023/05/12 03:43:46;;;;;;;;;;;;;;;10.48;100.00;101450.78;5067983;28;1219;-74
2023/05/12 03:46:11;;;;;;;;;;;;;;;10.50;100.00;101454.13;5057186;28;1150;-71
2023/05/12 03:48:36;;;;;;;;;;;;;;;10.49;100.00;101456.81;5066489;28;1572;-72
2023/05/12 03:51:02;;;;;;;;;;;;;;;10.49;100.00;101447.25;5064502;28;1370;-71
2023/05/12 03:53:28;;;;;;;;;;;;;;;10.52;100.00;101452.25;5062738;28;1493;-71
2023/05/12 03:55:53;;;;;;;;;;;;;;;10.54;100.00;101454.72;5062872;28;1184;-71
2023/05/12 03:58:18;;;;;;;;;;;;;;;10.54;100.00;101454.72;5060873;28;1902;-76
2023/05/12 04:00:43;;;;;;;;;;;;;;;10.54;100.00;101454.72;5059905;28;1293;-72
2023/05/12 04:03:09;;;;;;;;;;;;;;;10.55;100.00;101452.03;5062779;28;1196;-73
2023/05/12 04:05:35;;;;;;;;;;;;;;;10.56;100.00;101458.88;5060603;28;1545;-74
2023/05/12 04:08:00;;;;;;;;;;;;;;;10.54;100.00;101455.53;5061604;28;1303;-72
2023/05/12 04:10:25;;;;;;;;;;;;;;;10.54;100.00;101455.53;5060163;28;1524;-73
2023/05/12 04:12:51;;;;;;;;;;;;;;;10.54;100.00;101460.72;5060093;28;1053;-72
2023/05/12 04:15:16;;;;;;;;;;;;;;;10.57;100.00;101460.53;5050006;28;1371;-73
2023/05/12 04:17:41;;;;;;;;;;;;;;;10.55;100.00;101462.41;5060482;28;1163;-73
2023/05/12 04:20:07;;;;;;;;;;;;;;;10.57;100.00;101455.34;5067007;28;1894;-70
2023/05/12 04:22:32;;;;;;;;;;;;;;;10.55;100.00;101462.41;5064293;28;1521;-70
2023/05/12 04:24:57;;;;;;;;;;;;;;;10.54;100.00;101460.72;5061744;28;1104;-70
2023/05/12 04:27:23;;;;;;;;;;;;;;;10.58;100.00;101451.81;5062786;28;1540;-70
2023/05/12 04:29:48;;;;;;;;;;;;;;;10.58;100.00;101462.19;5058244;28;1091;-71
2023/05/12 04:32:13;;;;;;;;;;;;;;;10.61;100.00;101451.59;5064880;28;1403;-70
2023/05/12 04:34:38;;;;;;;;;;;;;;;10.64;100.00;101461.75;5063734;28;1538;-69
2023/05/12 04:37:03;;;;;;;;;;;;;;;10.65;100.00;101452.19;5065218;28;1248;-70
2023/05/12 04:39:29;;;;;;;;;;;;;;;10.68;100.00;101456.34;5070437;28;1955;-72
2023/05/12 04:41:54;;;;;;;;;;;;;;;10.71;100.00;101456.09;5069368;28;1267;-72
2023/05/12 04:44:20;;;;;;;;;;;;;;;10.74;100.00;101455.91;5085327;28;1316;-72
2023/05/12 04:46:46;;;;;;;;;;;;;;;10.76;100.00;101461.78;5067633;28;1333;-72
2023/05/12 04:49:11;;;;;;;;;;;;;;;10.79;100.00;101464.19;5064935;28;1428;-70
2023/05/12 04:51:43;;;;;;;;;;;;;;;10.82;100.00;101463.94;5065779;28;1250;-71
2023/05/12 04:54:09;;;;;;;;;;;;;;;10.85;100.00;101464.56;5060571;28;1320;-71
2023/05/12 04:56:34;;;;;;;;;;;;;;;10.87;100.00;101467.88;5065233;28;1192;-71
2023/05/12 04:58:59;;;;;;;;;;;;;;;10.90;100.00;101472.03;5065718;28;2363;-72
2023/05/12 05:01:24;;;;;;;;;;;;;;;10.93;100.00;101471.78;5069269;28;1175;-71
2023/05/12 05:03:50;;;;;;;;;;;;;;;10.96;100.00;101470.75;5064095;28;1213;-71
2023/05/12 05:06:15;;;;;;;;;;;;;;;10.98;100.00;101469.69;5065176;28;1223;-70
2023/05/12 05:08:40;;;;;;;;;;;;;;;11.01;100.00;101468.63;5065650;28;1127;-72
2023/05/12 05:11:06;;;;;;;;;;;;;;;11.04;100.00;101484.81;5066916;28;1081;-71
2023/05/12 05:13:31;;;;;;;;;;;;;;;11.07;100.00;101494.97;5059527;28;1273;-72
2023/05/12 05:15:56;;;;;;;;;;;;;;;11.10;100.00;101499.94;5066806;28;1064;-72
2023/05/12 05:18:21;;;;;;;;;;;;;;;11.13;100.00;101504.91;5070722;28;1917;-72
2023/05/12 05:20:47;;;;;;;;;;;;;;;11.15;100.00;101508.22;5060855;28;1109;-71
2023/05/12 05:23:12;;;;;;;;;;;;;;;11.20;100.00;101505.28;5067398;28;1353;-74
2023/05/12 05:25:38;;;;;;;;;;;;;;;11.25;100.00;101505.78;5060281;28;1065;-72
2023/05/12 05:28:03;;;;;;;;;;;;;;;11.28;100.00;101512.50;5064650;28;1225;-72
2023/05/12 05:30:28;;;;;;;;;;;;;;;11.30;100.00;101508.88;5065912;28;1217;-71
2023/05/12 05:32:53;;;;;;;;;;;;;;;11.35;100.00;101513.72;5060837;28;1249;-71
2023/05/12 05:35:19;;;;;;;;;;;;;;;11.39;100.00;101512.53;5064164;28;1199;-73
2023/05/12 05:37:44;;;;;;;;;;;;;;;11.42;100.00;101514.94;5065180;28;1568;-75
2023/05/12 05:40:09;;;;;;;;;;;;;;;11.46;100.00;101521.53;5062664;28;1894;-71
2023/05/12 05:42:35;;;;;;;;;;;;;;;11.50;100.00;101506.56;5063046;28;1171;-72
2023/05/12 05:45:00;;;;;;;;;;;;;;;11.53;100.00;101522.75;5065502;28;1315;-71
2023/05/12 05:47:27;;;;;;;;;;;;;;;11.56;100.00;101519.91;5061428;28;1124;-75
2023/05/12 05:49:52;;;;;;;;;;;;;;;11.60;100.00;101523.94;5067985;28;1344;-71
2023/05/12 05:52:17;;;;;;;;;;;;;;;11.63;100.00;101533.28;5062725;28;1362;-71
2023/05/12 05:54:42;;;;;;;;;;;;;;;11.67;100.00;101530.34;5061386;28;1418;-73
2023/05/12 05:57:08;;;;;;;;;;;;;;;11.70;100.00;101535.31;5058677;28;1277;-72
2023/05/12 05:59:33;;;;;;;;;;;;;;;11.75;100.00;101541.91;5055885;28;1901;-71
2023/05/12 06:01:58;;;;;;;;;;;;;;;11.79;100.00;101538.16;5068645;28;1510;-72
2023/05/12 06:04:23;;;;;;;;;;;;;;;11.80;100.00;101545.00;5065978;28;1009;-70
2023/05/12 06:06:48;;;;;;;;;;;;;;;11.85;100.00;101537.72;5065278;28;1291;-73
2023/05/12 06:09:14;;;;;;;;;;;;;;;11.88;100.00;101542.69;5067291;28;1198;-73
2023/05/12 06:11:39;;;;;;;;;;;;;;;11.93;100.00;101551.81;5068460;28;1264;-70
2023/05/12 06:14:05;;;;;;;;;;;;;;;12.00;100.00;101557.38;5058703;28;1257;-74
2023/05/12 06:16:30;;;;;;;;;;;;;;;12.03;100.00;101556.28;5061838;28;1301;-71
2023/05/12 06:18:55;;;;;;;;;;;;;;;12.06;100.00;101556.91;5059036;28;1967;-72
2023/05/12 06:21:20;;;;;;;;;;;;;;;12.11;100.00;101559.97;5060038;28;1306;-73
2023/05/12 06:23:46;;;;;;;;;;;;;;;12.17;100.00;101564.72;5063031;28;1263;-72
2023/05/12 06:26:11;;;;;;;;;;;;;;;12.20;100.00;101564.47;5062576;28;1176;-72
2023/05/12 06:28:36;;;;;;;;;;;;;;;12.23;100.00;101569.44;5062387;28;1254;-72
2023/05/12 06:31:01;;;;;;;;;;;;;;;12.28;100.00;101581.28;5067263;28;1291;-72
2023/05/12 06:33:27;;;;;;;;;;;;;;;12.30;100.00;101574.19;5063880;28;1517;-72
2023/05/12 06:35:52;;;;;;;;;;;;;;;12.34;100.00;101579.03;5065728;28;1568;-69
2023/05/12 06:38:17;;;;;;;;;;;;;;;12.38;100.00;101584.81;5064850;28;1906;-70
2023/05/12 06:40:42;;;;;;;;;;;;;;;12.40;100.00;101580.34;5065912;28;1049;-72
2023/05/12 06:43:07;;;;;;;;;;;;;;;12.43;100.00;101593.91;5079702;28;1340;-71
2023/05/12 06:45:33;;;;;;;;;;;;;;;12.49;100.00;101590.00;5064262;28;1327;-72
2023/05/12 06:47:58;;;;;;;;;;;;;;;12.53;100.00;101586.22;5062119;28;1084;-72
2023/05/12 06:50:23;;;;;;;;;;;;;;;12.58;100.00;101589.31;5066027;28;1385;-71
2023/05/12 06:52:49;;;;;;;;;;;;;;;12.64;100.00;101594.03;5064123;28;1567;-71
2023/05/12 06:55:18;;;;;;;;;;;;;;;12.71;100.00;101599.59;5066594;28;1223;-71
2023/05/12 06:57:43;;;;;;;;;;;;;;;12.79;100.00;101601.56;5063965;28;1469;-71
2023/05/12 07:00:09;;;;;;;;;;;;;;;12.83;100.00;101603.00;5067100;28;1965;-71
2023/05/12 07:02:34;;;;;;;;;;;;;;;12.89;100.00;101592.09;5063144;28;1220;-71
2023/05/12 07:05:00;;;;;;;;;;;;;;;12.95;100.00;101602.03;5063565;28;1271;-72
2023/05/12 07:07:25;;;;;;;;;;;;;;;13.01;100.00;101604.13;5059704;28;1133;-72
2023/05/12 07:09:51;;;;;;;;;;;;;;;13.01;100.00;101612.78;5064654;28;1146;-72
2023/05/12 07:12:16;;;;;;;;;;;;;;;13.07;100.00;101606.25;5058166;28;1113;-70
2023/05/12 07:14:41;;;;;;;;;;;;;;;13.10;100.00;101610.41;5067227;28;1155;-70
2023/05/12 07:17:06;;;;;;;;;;;;;;;13.13;100.00;101616.22;5059243;28;1100;-70
2023/05/12 07:19:32;;;;;;;;;;;;;;;13.19;100.00;101613.13;5057865;28;1906;-72
2023/05/12 07:21:57;;;;;;;;;;;;;;;13.22;100.00;101609.47;5065461;28;1030;-70
2023/05/12 07:24:23;;;;;;;;;;;;;;;13.26;100.00;101614.31;5061396;28;994;-71
2023/05/12 07:26:48;;;;;;;;;;;;;;;13.27;100.00;101618.56;5065216;28;1018;-72
2023/05/12 07:29:13;;;;;;;;;;;;;;;13.33;100.00;101611.19;5065609;28;1091;-71
2023/05/12 07:31:39;;;;;;;;;;;;;;;13.40;100.00;101626.22;5065286;28;1165;-71
2023/05/12 07:34:05;;;;;;;;;;;;;;;13.47;100.00;101624.75;5063344;28;1276;-70
2023/05/12 07:36:30;;;;;;;;;;;;;;;13.50;100.00;101613.28;5061360;28;1510;-71
2023/05/12 07:38:55;;;;;;;;;;;;;;;13.65;100.00;101625.06;5064084;28;1961;-73
2023/05/12 07:41:21;;;;;;;;;;;;;;;13.74;100.00;101620.84;5058517;28;1240;-70
2023/05/12 07:43:46;;;;;;;;;;;;;;;13.86;100.00;101626.84;5063562;28;1282;-71
2023/05/12 07:46:12;;;;;;;;;;;;;;;13.96;100.00;101630.34;5063015;28;1171;-71
2023/05/12 07:48:38;;;;;;;;;;;;;;;14.06;100.00;101626.03;5065416;28;1323;-71
2023/05/12 07:51:05;;;;;;;;;;;;;;;14.14;100.00;101634.03;5063106;28;1517;-76
2023/05/12 07:53:30;;;;;;;;;;;;;;;14.21;100.00;101636.94;5063794;28;1251;-72
2023/05/12 07:55:55;;;;;;;;;;;;;;;14.24;100.00;101645.34;5063320;28;1482;-72
2023/05/12 07:58:21;;;;;;;;;;;;;;;14.29;100.00;101635.34;5056398;28;1906;-72
2023/05/12 08:00:46;;;;;;;;;;;;;;;14.46;100.00;101638.31;5062853;28;1331;-71
2023/05/12 08:03:12;;;;;;;;;;;;;;;14.48;100.00;101644.25;5063763;28;1267;-72
2023/05/12 08:05:37;;;;;;;;;;;;;;;14.54;100.00;101641.94;5061516;28;1175;-72
2023/05/12 08:08:02;;;;;;;;;;;;;;;14.64;100.00;101657.66;5062622;28;1287;-74
2023/05/12 08:10:28;;;;;;;;;;;;;;;14.68;100.00;101646.00;5065895;28;1267;-71
2023/05/12 08:12:54;;;;;;;;;;;;;;;14.66;100.00;101645.28;5057070;28;1188;-71
2023/05/12 08:15:19;;;;;;;;;;;;;;;14.63;100.00;101645.56;5062531;28;1264;-73
2023/05/12 08:17:44;;;;;;;;;;;;;;;14.66;100.00;101639.25;5065972;28;1116;-75
2023/05/12 08:20:10;;;;;;;;;;;;;;;14.74;100.00;101660.31;5060462;28;1971;-71
2023/05/12 08:22:35;;;;;;;;;;;;;;;14.68;100.00;101653.84;5056407;28;1245;-72
2023/05/12 08:25:00;;;;;;;;;;;;;;;14.73;100.00;101661.25;5066251;28;1164;-73
2023/05/12 08:27:26;;;;;;;;;;;;;;;14.81;100.00;101659.66;5060176;28;1172;-74
2023/05/12 08:29:51;;;;;;;;;;;;;;;14.81;99.60;101664.88;5062215;28;1623;-71
2023/05/12 08:32:16;;;;;;;;;;;;;;;14.87;100.00;101668.75;5061454;28;1356;-71
2023/05/12 08:34:41;;;;;;;;;;;;;;;14.92;99.81;101665.75;5064202;28;1247;-71
2023/05/12 08:37:07;;;;;;;;;;;;;;;15.01;98.00;101668.38;5065898;28;1200;-73
2023/05/12 08:39:32;;;;;;;;;;;;;;;14.98;96.26;101675.66;5061427;28;1972;-71
2023/05/12 08:42:16;;;;;;;;;;;;;;;15.01;95.95;101678.00;5064339;28;1264;-72
2023/05/12 08:44:42;;;;;;;;;;;;;;;15.16;95.57;101675.84;5055576;28;1366;-71
2023/05/12 08:47:08;;;;;;;;;;;;;;;15.11;95.46;101676.22;5075967;28;1674;-72
2023/05/12 08:49:34;;;;;;;;;;;;;;;15.22;95.15;101678.75;5055291;28;1253;-69
2023/05/12 08:52:00;;;;;;;;;;;;;;;15.20;94.47;101680.66;5061478;28;1248;-69
2023/05/12 08:54:26;;;;;;;;;;;;;;;15.33;96.17;101686.47;5066547;28;1224;-72
2023/05/12 08:56:52;;;;;;;;;;;;;;;15.47;94.38;101692.25;5059136;28;1053;-72
2023/05/12 08:59:18;;;;;;;;;;;;;;;15.51;94.19;101691.03;5064756;28;1926;-72
2023/05/12 09:01:46;;;;;;;;;;;;;;;15.57;93.74;101688.69;5064762;28;1228;-74
2023/05/12 09:04:12;;;;;;;;;;;;;;;15.64;92.52;101696.84;5066054;28;1278;-72
2023/05/12 09:06:37;;;;;;;;;;;;;;;15.67;90.16;101693.97;5057410;28;1038;-72
2023/05/12 09:09:02;;;;;;;;;;;;;;;15.70;87.55;101693.69;5054610;28;1032;-71
2023/05/12 09:11:27;;;;;;;;;;;;;;;15.69;91.94;101694.66;5063100;28;1407;-73
2023/05/12 09:13:56;;;;;;;;;;;;;;;15.79;90.77;101698.09;5067602;28;1087;-71
2023/05/12 09:16:22;;;;;;;;;;;;;;;15.85;91.75;101694.94;5068511;28;1057;-72
2023/05/12 09:18:51;;;;;;;;;;;;;;;15.84;88.81;101695.06;5065088;28;1894;-71
2023/05/12 09:21:17;;;;;;;;;;;;;;;15.86;89.29;101699.19;5066072;28;1325;-72
2023/05/12 09:23:57;;;;;;;;;;;;;;;15.85;90.07;101702.78;5063523;28;1121;-73
2023/05/12 09:26:23;;;;;;;;;;;;;;;15.81;88.11;101705.78;5066952;28;1243;-71
2023/05/12 09:28:49;;;;;;;;;;;;;;;15.78;88.70;101701.69;5067396;28;1213;-72
2023/05/12 09:31:14;;;;;;;;;;;;;;;15.75;88.06;101707.16;5064453;28;1234;-72
2023/05/12 09:33:40;;;;;;;;;;;;;;;15.78;87.32;101708.72;5063903;28;1262;-74
2023/05/12 09:36:05;;;;;;;;;;;;;;;15.71;88.66;101705.78;5066190;28;1267;-71
2023/05/12 09:38:30;;;;;;;;;;;;;;;15.71;88.07;101721.47;5076929;28;1957;-71
2023/05/12 09:40:55;;;;;;;;;;;;;;;15.68;87.23;101711.31;5067074;28;1395;-76
2023/05/12 09:43:21;;;;;;;;;;;;;;;15.69;87.98;101707.72;5067810;28;1338;-72
2023/05/12 09:45:48;;;;;;;;;;;;;;;15.72;87.86;101720.53;5067818;28;1274;-73
2023/05/12 09:48:14;;;;;;;;;;;;;;;15.73;86.56;101719.56;5069092;28;1139;-71
2023/05/12 09:50:46;;;;;;;;;;;;;;;15.74;86.80;101710.75;5062619;28;1560;-72
2023/05/12 09:53:12;;;;;;;;;;;;;;;15.84;85.54;101716.81;5066471;28;1101;-73
2023/05/12 09:55:37;;;;;;;;;;;;;;;15.80;84.61;101720.66;5067643;28;1358;-71
2023/05/12 09:58:06;;;;;;;;;;;;;;;15.79;83.05;101720.81;5063503;28;1290;-73
2023/05/12 10:00:32;;;;;;;;;;;;;;;15.81;82.63;101722.31;5059492;28;1894;-72
2023/05/12 10:02:58;;;;;;;;;;;;;;;15.81;84.01;101722.31;5062228;28;1595;-70
2023/05/12 10:05:24;;;;;;;;;;;;;;;15.84;84.81;101722.06;5068657;28;1591;-72
2023/05/12 10:07:50;;;;;;;;;;;;;;;15.88;84.72;101728.66;5068674;28;1322;-72
2023/05/12 10:10:20;;;;;;;;;;;;;;;15.97;84.50;101726.19;5063179;28;1268;-73
2023/05/12 10:12:46;;;;;;;;;;;;;;;16.04;84.19;101732.50;5059274;28;1223;-73
2023/05/12 10:15:12;;;;;;;;;;;;;;;16.09;85.58;101725.91;5065816;28;1362;-72
2023/05/12 10:17:38;;;;;;;;;;;;;;;16.17;83.84;101727.81;5084366;28;1400;-72
2023/05/12 10:20:05;;;;;;;;;;;;;;;16.24;85.29;101728.09;5063449;28;1906;-74
2023/05/12 10:22:32;;;;;;;;;;;;;;;16.31;83.31;101724.78;5066570;28;1161;-72
2023/05/12 10:24:58;;;;;;;;;;;;;;;16.37;82.50;101718.97;5064415;28;1313;-71
2023/05/12 10:27:24;;;;;;;;;;;;;;;16.46;84.11;101728.59;5066095;28;1096;-72
2023/05/12 10:29:50;;;;;;;;;;;;;;;16.53;83.45;101728.03;5066678;28;1036;-72
2023/05/12 10:32:15;;;;;;;;;;;;;;;16.64;83.50;101733.13;5060583;28;1291;-71
2023/05/12 10:34:43;;;;;;;;;;;;;;;16.64;79.38;101736.56;5064442;28;1283;-72
2023/05/12 10:37:12;;;;;;;;;;;;;;;16.67;79.68;101738.03;5066335;28;1521;-73
2023/05/12 10:39:47;;;;;;;;;;;;;;;16.69;79.40;101742.19;5066986;28;1991;-72
2023/05/12 10:42:15;;;;;;;;;;;;;;;16.78;80.54;101737.91;5063229;28;1293;-73
2023/05/12 10:44:48;;;;;;;;;;;;;;;16.87;77.86;101736.25;5066268;28;1168;-71
2023/05/12 10:47:14;;;;;;;;;;;;;;;16.89;77.46;101742.97;5058804;28;1032;-75
2023/05/12 10:49:40;;;;;;;;;;;;;;;16.87;78.36;101737.06;5064964;28;1299;-73
2023/05/12 10:52:06;;;;;;;;;;;;;;;16.97;79.63;101732.63;5059221;28;1317;-73
2023/05/12 10:54:38;;;;;;;;;;;;;;;17.09;77.91;101732.38;5061929;28;1139;-72
2023/05/12 10:57:11;;;;;;;;;;;;;;;17.10;75.87;101739.31;5066603;28;1204;-72
2023/05/12 10:59:46;;;;;;;;;;;;;;;17.11;76.22;101743.56;5056777;28;1961;-73
2023/05/12 11:02:14;;;;;;;;;;;;;;;17.20;77.08;101742.69;5054324;28;1098;-72
2023/05/12 11:04:40;;;;;;;;;;;;;;;17.36;76.68;101753.38;5065921;28;1276;-72
2023/05/12 11:07:08;;;;;;;;;;;;;;;17.43;76.22;101743.09;5061230;28;1186;-72
2023/05/12 11:09:37;;;;;;;;;;;;;;;17.55;74.57;101735.84;5064944;28;1065;-73
2023/05/12 11:12:04;;;;;;;;;;;;;;;17.66;72.57;101743.50;5060398;28;1202;-73
2023/05/12 11:14:30;;;;;;;;;;;;;;;17.65;67.90;101742.69;5063953;28;1119;-71
2023/05/12 11:16:55;;;;;;;;;;;;;;;17.69;70.88;101737.97;5055715;28;1091;-72
2023/05/12 11:19:20;;;;;;;;;;;;;;;17.76;72.55;101749.56;5063209;28;1972;-72
2023/05/12 11:21:47;;;;;;;;;;;;;;;17.70;71.79;101739.63;5076218;28;1360;-73
2023/05/12 11:24:12;;;;;;;;;;;;;;;17.76;72.96;101744.31;5067087;28;1118;-72
2023/05/12 11:26:38;;;;;;;;;;;;;;;17.79;70.02;101754.50;5064941;28;1227;-72
2023/05/12 11:29:04;;;;;;;;;;;;;;;17.75;70.14;101753.16;5064933;28;1290;-73
2023/05/12 11:31:29;;;;;;;;;;;;;;;17.75;69.35;101753.16;5057622;28;1033;-72
2023/05/12 11:34:02;;;;;;;;;;;;;;;17.87;69.46;101756.38;5062954;28;1420;-73
2023/05/12 11:36:27;;;;;;;;;;;;;;;17.80;68.35;101758.78;5064262;28;1269;-73
2023/05/12 11:38:52;;;;;;;;;;;;;;;17.80;68.59;101761.41;5063034;28;1961;-73
2023/05/12 11:41:25;;;;;;;;;;;;;;;17.80;68.57;101745.66;5056901;28;1270;-73
2023/05/12 11:43:50;;;;;;;;;;;;;;;17.83;66.81;101753.22;5056109;28;1343;-72
2023/05/12 11:46:22;;;;;;;;;;;;;;;17.87;68.16;101757.19;5079028;28;1234;-71
2023/05/12 11:48:53;;;;;;;;;;;;;;;17.95;68.30;101754.66;5059996;28;1477;-72
2023/05/12 11:51:18;;;;;;;;;;;;;;;17.97;67.02;101757.97;5059209;28;1485;-72
2023/05/12 11:53:43;;;;;;;;;;;;;;;17.99;67.58;101750.75;5061871;28;990;-73
2023/05/12 11:56:16;;;;;;;;;;;;;;;18.06;70.40;101750.97;5065300;28;1219;-73
2023/05/12 11:58:50;;;;;;;;;;;;;;;18.19;69.48;101763.72;5052787;28;1897;-73
2023/05/12 12:01:16;;;;;;;;;;;;;;;18.32;70.72;101761.53;5055646;28;1282;-72
2023/05/12 12:03:47;;;;;;;;;;;;;;;18.36;68.97;101757.63;5059401;28;1312;-72
2023/05/12 12:06:12;;;;;;;;;;;;;;;18.42;66.40;101762.25;5061867;28;1545;-73
2023/05/12 12:08:48;;;;;;;;;;;;;;;18.52;67.71;101770.88;5058322;28;1525;-73
2023/05/12 12:11:13;;;;;;;;;;;;;;;18.43;65.06;101758.66;5064191;28;1251;-73
2023/05/12 12:13:46;;;;;;;;;;;;;;;18.40;67.15;101764.19;5056866;28;1127;-74
2023/05/12 12:16:11;;;;;;;;;;;;;;;18.37;66.50;101769.75;5061137;28;1286;-72
2023/05/12 12:18:36;;;;;;;;;;;;;;;18.30;66.44;101766.09;5060903;28;1898;-70
2023/05/12 12:21:01;;;;;;;;;;;;;;;18.30;65.74;101774.00;5056957;28;1288;-69
2023/05/12 12:23:26;;;;;;;;;;;;;;;18.28;66.15;101781.19;5078441;28;1194;-73
2023/05/12 12:25:52;;;;;;;;;;;;;;;18.33;67.62;101778.91;5066092;28;1157;-72
2023/05/12 12:28:17;;;;;;;;;;;;;;;18.39;67.64;101778.31;5057215;28;1354;-70
2023/05/12 12:30:42;;;;;;;;;;;;;;;18.49;68.33;101779.03;5058703;28;1270;-72
2023/05/12 12:33:07;;;;;;;;;;;;;;;18.61;68.77;101779.63;5062258;28;1083;-74